createdAt,value
2019-04-21T00:02:18.796Z,52.81
2019-04-21T00:05:33.447Z,53.61
2019-04-21T00:08:45.137Z,53.58
2019-04-21T00:11:49.637Z,53.63
2019-04-21T00:14:47.178Z,54.07
2019-04-21T00:17:49.333Z,54.15
2019-04-21T00:20:54.588Z,54.05
2019-04-21T00:24:26.548Z,54.14
2019-04-21T00:27:33.821Z,54.87
2019-04-21T00:30:45.234Z,54.45
2019-04-21T00:33:34.341Z,54.69
2019-04-21T00:36:48.890Z,55.28
2019-04-21T00:40:06.386Z,55.09
2019-04-21T00:43:03.724Z,54.85
2019-04-21T00:46:04.850Z,55.34
2019-04-21T00:49:18.273Z,55.31
2019-04-21T00:52:46.004Z,55.27
2019-04-21T00:55:44.517Z,54.68
2019-04-21T00:58:47.736Z,54.91
2019-04-21T01:01:49.334Z,55.23
2019-04-21T01:05:00.134Z,55.88
2019-04-21T01:08:05.127Z,56.44
2019-04-21T01:11:12.321Z,56.74
2019-04-21T01:14:27.241Z,56.33
2019-04-21T01:17:22.956Z,56.17
2019-04-21T01:20:16.875Z,56.73
2019-04-21T01:23:15.048Z,56.58
2019-04-21T01:26:32.579Z,56.36
2019-04-21T01:29:46.564Z,56.77
2019-04-21T01:32:53.988Z,56.50
2019-04-21T01:35:58.359Z,56.18
2019-04-21T01:39:07.929Z,56.19
2019-04-21T01:42:12.726Z,56.35
2019-04-21T01:45:18.905Z,55.83
2019-04-21T01:48:21.568Z,56.74
2019-04-21T01:51:28.105Z,57.02
2019-04-21T01:54:43.585Z,57.78
2019-04-21T01:57:48.096Z,57.24
2019-04-21T02:00:52.039Z,56.96
2019-04-21T02:07:12.990Z,57.47
2019-04-21T02:10:21.108Z,57.71
2019-04-21T02:13:17.125Z,57.91
2019-04-21T02:16:28.292Z,58.49
2019-04-21T02:19:28.659Z,58.14
2019-04-21T02:22:46.348Z,58.22
2019-04-21T02:25:44.268Z,58.03
2019-04-21T02:28:58.952Z,57.33
2019-04-21T02:32:10.401Z,56.99
2019-04-21T02:38:33.800Z,58.52
2019-04-21T02:41:31.183Z,59.06
2019-04-21T02:44:37.504Z,59.26
2019-04-21T02:47:50.395Z,59.52
2019-04-21T02:50:47.274Z,59.57
2019-04-21T02:54:28.593Z,59.85
2019-04-21T02:57:03.280Z,59.55
2019-04-21T03:03:26.006Z,60.09
2019-04-21T03:06:29.494Z,59.60
2019-04-21T03:09:33.523Z,59.41
2019-04-21T03:12:28.990Z,59.04
2019-04-21T03:15:47.269Z,59.02
2019-04-21T03:18:56.564Z,59.66
2019-04-21T03:21:57.244Z,59.33
2019-04-21T03:32:02.097Z,60.00
2019-04-21T03:34:41.187Z,60.06
2019-04-21T03:37:35.400Z,60.41
2019-04-21T03:40:32.300Z,60.49
2019-04-21T03:43:47.961Z,60.15
2019-04-21T03:47:01.699Z,59.88
2019-04-21T03:53:07.009Z,60.42
2019-04-21T03:59:12.663Z,60.60
2019-04-21T04:02:26.324Z,60.60
2019-04-21T04:06:02.026Z,61.73
2019-04-21T04:09:14.282Z,60.58
2019-04-21T04:15:18.657Z,60.68
2019-04-21T04:18:29.894Z,60.81
2019-04-21T04:21:30.785Z,61.52
2019-04-21T04:24:31.664Z,62.06
2019-04-21T04:27:51.483Z,61.68
2019-04-21T04:30:47.595Z,62.52
2019-04-21T04:37:05.395Z,62.92
2019-04-21T04:40:23.300Z,62.59
2019-04-21T04:43:27.894Z,62.15
2019-04-21T04:46:18.399Z,62.88
2019-04-21T04:49:38.669Z,62.61
2019-04-21T04:55:39.533Z,63.43
2019-04-21T04:59:20.107Z,62.87
2019-04-21T05:05:07.084Z,63.17
2019-04-21T05:08:14.369Z,62.71
2019-04-21T05:11:23.028Z,62.91
2019-04-21T05:17:30.960Z,63.67
2019-04-21T05:20:41.854Z,63.55
2019-04-21T05:23:26.691Z,63.42
2019-04-21T05:26:27.405Z,64.26
2019-04-21T05:29:37.589Z,63.26
2019-04-21T05:33:00.012Z,64.10
2019-04-21T05:36:11.106Z,62.28
2019-04-21T05:39:24.817Z,59.61
2019-04-21T05:42:35.329Z,59.57
2019-04-21T05:45:50.039Z,59.83
2019-04-21T05:49:00.816Z,59.42
2019-04-21T05:52:00.237Z,58.33
2019-04-21T05:55:16.680Z,58.78
2019-04-21T05:58:16.399Z,57.73
2019-04-21T06:01:55.534Z,56.46
2019-04-21T06:04:52.631Z,56.19
2019-04-21T06:07:55.285Z,56.44
2019-04-21T06:10:47.397Z,54.42
2019-04-21T06:13:55.532Z,54.04
2019-04-21T06:17:01.500Z,51.22
2019-04-21T06:23:13.570Z,46.90
2019-04-21T06:26:44.897Z,43.62
2019-04-21T06:29:26.448Z,40.10
2019-04-21T06:41:58.557Z,28.80
2019-04-21T06:45:20.187Z,27.81
2019-04-21T06:48:18.439Z,26.73
2019-04-21T06:51:26.546Z,28.70
2019-04-21T06:54:29.153Z,29.07
2019-04-21T06:57:35.732Z,30.46
2019-04-21T07:00:39.118Z,31.89
2019-04-21T07:03:55.480Z,32.46
2019-04-21T07:06:56.258Z,33.89
2019-04-21T07:10:01.440Z,33.26
2019-04-21T07:13:03.906Z,34.37
2019-04-21T07:16:10.745Z,33.53
2019-04-21T07:19:21.395Z,34.81
2019-04-21T07:22:24.693Z,34.17
2019-04-21T07:25:32.791Z,33.73
2019-04-21T07:28:46.149Z,30.31
2019-04-21T07:31:47.129Z,29.92
2019-04-21T07:34:51.414Z,32.37
2019-04-21T07:37:53.495Z,30.86
2019-04-21T07:40:53.889Z,31.60
2019-04-21T07:43:59.762Z,33.55
2019-04-21T07:47:13.414Z,30.72
2019-04-21T07:50:28.594Z,30.31
2019-04-21T07:53:40.641Z,31.61
2019-04-21T07:56:32.460Z,32.04
2019-04-21T07:59:56.553Z,30.28
2019-04-21T08:02:54.457Z,32.04
2019-04-21T08:06:02.390Z,29.70
2019-04-21T08:09:08.936Z,30.63
2019-04-21T08:12:08.118Z,32.68
2019-04-21T08:15:36.523Z,32.56
2019-04-21T08:18:27.008Z,31.49
2019-04-21T08:21:37.157Z,30.98
2019-04-21T08:24:42.580Z,30.61
2019-04-21T08:27:56.815Z,30.00
2019-04-21T08:30:50.217Z,29.73
2019-04-21T08:34:00.726Z,29.01
2019-04-21T08:37:08.768Z,29.36
2019-04-21T08:40:15.757Z,30.03
2019-04-21T08:43:23.820Z,29.19
2019-04-21T08:46:26.722Z,27.59
2019-04-21T08:49:27.761Z,27.46
2019-04-21T08:52:44.463Z,27.21
2019-04-21T08:55:55.418Z,27.02
2019-04-21T08:59:22.226Z,27.68
2019-04-21T09:02:27.102Z,28.26
2019-04-21T09:05:23.376Z,30.03
2019-04-21T09:08:32.872Z,26.97
2019-04-21T09:11:40.362Z,28.65
2019-04-21T09:14:50.685Z,28.42
2019-04-21T09:17:44.761Z,28.04
2019-04-21T09:21:01.106Z,27.09
2019-04-21T09:24:04.586Z,28.08
2019-04-21T09:27:11.297Z,27.98
2019-04-21T09:30:04.748Z,28.26
2019-04-21T09:33:07.397Z,27.02
2019-04-21T09:36:15.234Z,27.39
2019-04-21T09:39:22.252Z,25.53
2019-04-21T09:42:33.201Z,26.61
2019-04-21T09:45:30.818Z,25.19
2019-04-21T09:48:48.521Z,27.52
2019-04-21T09:51:41.840Z,29.87
2019-04-21T09:54:56.448Z,28.96
2019-04-21T09:57:56.936Z,27.87
2019-04-21T10:01:09.816Z,27.96
2019-04-21T10:04:05.803Z,25.89
2019-04-21T10:07:23.389Z,28.39
2019-04-21T10:10:17.341Z,25.20
2019-04-21T10:13:22.989Z,27.04
2019-04-21T10:16:40.575Z,25.73
2019-04-21T10:19:46.376Z,26.28
2019-04-21T10:22:51.272Z,27.47
2019-04-21T10:25:56.824Z,24.37
2019-04-21T10:29:08.229Z,25.04
2019-04-21T10:32:09.071Z,21.31
2019-04-21T10:35:15.007Z,23.99
2019-04-21T10:38:30.190Z,25.96
2019-04-21T10:41:27.577Z,20.38
2019-04-21T10:44:32.330Z,21.85
2019-04-21T10:47:38.786Z,19.96
2019-04-21T10:50:45.212Z,20.17
2019-04-21T10:53:53.871Z,19.51
2019-04-21T10:56:58.829Z,19.53
2019-04-21T11:00:04.498Z,18.71
2019-04-21T11:03:29.061Z,18.76
2019-04-21T11:06:34.757Z,18.87
2019-04-21T11:09:40.203Z,21.76
2019-04-21T11:12:47.565Z,17.66
2019-04-21T11:15:50.995Z,20.60
2019-04-21T11:18:56.014Z,18.36
2019-04-21T11:22:01.100Z,21.58
2019-04-21T11:25:07.435Z,18.15
2019-04-21T11:28:14.304Z,17.99
2019-04-21T11:31:18.773Z,17.98
2019-04-21T11:34:25.077Z,18.18
2019-04-21T11:37:32.321Z,17.02
2019-04-21T11:40:38.084Z,18.94
2019-04-21T11:43:43.266Z,17.40
2019-04-21T11:46:48.815Z,17.85
2019-04-21T11:49:54.861Z,20.38
2019-04-21T11:52:59.373Z,20.62
2019-04-21T11:56:04.865Z,16.77
2019-04-21T11:59:09.963Z,18.80
2019-04-21T12:02:15.227Z,16.49
2019-04-21T12:05:21.343Z,20.14
2019-04-21T12:08:33.207Z,17.02
2019-04-21T12:11:33.681Z,18.63
2019-04-21T12:14:39.625Z,18.22
2019-04-21T12:17:45.845Z,19.15
2019-04-21T12:20:51.624Z,16.59
2019-04-21T12:23:56.663Z,17.43
2019-04-21T12:27:02.253Z,17.63
2019-04-21T12:30:11.421Z,15.23
2019-04-21T12:33:18.195Z,19.21
2019-04-21T12:36:24.049Z,19.74
2019-04-21T12:39:30.436Z,18.29
2019-04-21T12:42:37.627Z,19.08
2019-04-21T12:45:42.024Z,19.26
2019-04-21T12:48:46.920Z,17.60
2019-04-21T12:51:51.588Z,16.76
2019-04-21T12:54:57.602Z,19.79
2019-04-21T12:58:03.407Z,16.77
2019-04-21T13:01:09.222Z,16.55
2019-04-21T13:04:13.828Z,17.57
2019-04-21T13:07:19.407Z,16.25
2019-04-21T13:10:24.424Z,17.39
2019-04-21T13:13:30.144Z,17.02
2019-04-21T13:16:34.758Z,16.70
2019-04-21T13:19:39.200Z,18.12
2019-04-21T13:22:43.981Z,18.06
2019-04-21T13:25:49.751Z,14.96
2019-04-21T13:28:54.446Z,17.76
2019-04-21T13:32:00.132Z,15.90
2019-04-21T13:35:06.113Z,17.59
2019-04-21T13:38:19.949Z,17.85
2019-04-21T13:41:32.811Z,17.96
2019-04-21T13:44:24.953Z,14.90
2019-04-21T13:47:30.530Z,17.26
2019-04-21T13:50:35.466Z,17.88
2019-04-21T13:53:40.013Z,16.48
2019-04-21T13:56:44.998Z,18.64
2019-04-21T13:59:51.252Z,17.46
2019-04-21T14:02:56.453Z,16.10
2019-04-21T14:06:02.402Z,15.83
2019-04-21T14:09:10.996Z,16.71
2019-04-21T14:12:15.441Z,16.70
2019-04-21T14:15:22.035Z,16.25
2019-04-21T14:18:27.057Z,18.00
2019-04-21T14:21:31.786Z,14.95
2019-04-21T14:24:37.086Z,16.15
2019-04-21T14:27:44.302Z,15.28
2019-04-21T14:30:50.350Z,15.07
2019-04-21T14:33:56.308Z,14.88
2019-04-21T14:37:02.544Z,15.65
2019-04-21T14:40:15.519Z,15.12
2019-04-21T14:43:16.464Z,14.51
2019-04-21T14:46:22.947Z,15.95
2019-04-21T14:49:47.149Z,15.74
2019-04-21T14:53:08.128Z,16.30
2019-04-21T14:56:13.280Z,14.64
2019-04-21T14:59:19.228Z,16.99
2019-04-21T15:02:23.712Z,14.54
2019-04-21T15:05:29.369Z,14.51
2019-04-21T15:08:35.235Z,14.17
2019-04-21T15:11:40.183Z,17.03
2019-04-21T15:14:44.941Z,16.42
2019-04-21T15:17:49.527Z,14.75
2019-04-21T15:20:55.182Z,14.69
2019-04-21T15:24:00.399Z,14.72
2019-04-21T15:27:05.118Z,16.82
2019-04-21T15:30:11.054Z,16.37
2019-04-21T15:33:16.274Z,16.05
2019-04-21T15:36:21.055Z,17.36
2019-04-21T15:39:25.785Z,17.22
2019-04-21T15:42:30.637Z,17.39
2019-04-21T15:45:35.103Z,17.89
2019-04-21T15:48:41.117Z,15.84
2019-04-21T15:51:46.389Z,16.88
2019-04-21T15:54:52.456Z,16.99
2019-04-21T15:58:02.610Z,16.72
2019-04-21T16:01:21.165Z,15.29
2019-04-21T16:04:25.612Z,17.42
2019-04-21T16:07:30.062Z,16.02
2019-04-21T16:10:43.677Z,18.38
2019-04-21T16:13:41.680Z,16.75
2019-04-21T16:16:47.458Z,17.58
2019-04-21T16:19:52.254Z,17.47
2019-04-21T16:22:56.904Z,17.39
2019-04-21T16:26:02.585Z,17.74
2019-04-21T16:29:08.965Z,18.40
2019-04-21T16:32:16.353Z,17.43
2019-04-21T16:35:21.727Z,17.81
2019-04-21T16:38:26.622Z,18.18
2019-04-21T16:41:32.134Z,18.30
2019-04-21T16:44:37.055Z,19.49
2019-04-21T16:47:42.146Z,19.99
2019-04-21T16:50:47.803Z,20.00
2019-04-21T16:53:53.988Z,17.83
2019-04-21T16:57:03.730Z,18.07
2019-04-21T17:00:12.798Z,18.18
2019-04-21T17:03:18.826Z,19.71
2019-04-21T17:06:24.864Z,18.92
2019-04-21T17:09:30.653Z,19.78
2019-04-21T17:12:35.663Z,19.17
2019-04-21T17:15:56.613Z,20.11
2019-04-21T17:18:57.440Z,18.47
2019-04-21T17:21:53.505Z,19.23
2019-04-21T17:24:58.335Z,19.45
2019-04-21T17:28:03.580Z,20.09
2019-04-21T17:31:08.596Z,19.90
2019-04-21T17:34:17.990Z,21.73
2019-04-21T17:37:22.036Z,22.87
2019-04-21T17:40:27.312Z,24.63
2019-04-21T17:43:32.000Z,24.36
2019-04-21T17:46:45.824Z,23.58
2019-04-21T17:49:43.130Z,23.76
2019-04-21T17:53:10.696Z,26.11
2019-04-21T17:56:48.132Z,25.80
2019-04-21T17:59:53.737Z,25.90
2019-04-21T18:02:47.906Z,26.95
2019-04-21T18:05:46.917Z,28.06
2019-04-21T18:09:04.392Z,28.36
2019-04-21T18:12:05.790Z,28.67
2019-04-21T18:15:01.436Z,29.32
2019-04-21T18:17:58.678Z,30.00
2019-04-21T18:21:14.580Z,30.22
2019-04-21T18:24:31.876Z,30.39
2019-04-21T18:27:29.716Z,30.84
2019-04-21T18:30:48.718Z,30.17
2019-04-21T18:34:03.497Z,28.17
2019-04-21T18:37:05.488Z,29.90
2019-04-21T18:40:16.762Z,30.39
2019-04-21T18:43:48.918Z,30.58
2019-04-21T18:46:52.567Z,30.10
2019-04-21T18:49:44.096Z,28.91
2019-04-21T18:53:04.860Z,28.19
2019-04-21T18:56:03.748Z,29.56
2019-04-21T18:59:04.587Z,30.39
2019-04-21T19:02:11.233Z,30.77
2019-04-21T19:05:21.039Z,31.17
2019-04-21T19:08:39.249Z,31.27
2019-04-21T19:11:49.945Z,31.27
2019-04-21T19:14:51.057Z,31.14
2019-04-21T19:18:29.650Z,31.71
2019-04-21T19:21:00.270Z,31.65
2019-04-21T19:24:17.884Z,31.26
2019-04-21T19:27:17.619Z,31.28
2019-04-21T19:33:29.640Z,33.18
2019-04-21T19:36:21.559Z,34.37
2019-04-21T19:39:39.168Z,33.97
2019-04-21T19:42:43.770Z,35.10
2019-04-21T19:45:54.096Z,35.13
2019-04-21T19:49:10.683Z,35.91
2019-04-21T19:52:01.286Z,36.58
2019-04-21T19:54:58.641Z,36.80
2019-04-21T19:58:05.097Z,36.18
2019-04-21T20:01:11.782Z,36.50
2019-04-21T20:04:16.912Z,36.65
2019-04-21T20:07:38.191Z,36.42
2019-04-21T20:10:48.465Z,36.40
2019-04-21T20:14:13.713Z,36.75
2019-04-21T20:16:54.485Z,38.10
2019-04-21T20:19:47.899Z,38.46
2019-04-21T20:22:54.235Z,38.72
2019-04-21T20:26:02.429Z,38.71
2019-04-21T20:29:22.998Z,39.17
2019-04-21T20:35:46.906Z,39.90
2019-04-21T20:38:35.804Z,39.90
2019-04-21T20:41:40.944Z,39.75
2019-04-21T20:45:14.812Z,40.51
2019-04-21T20:47:48.983Z,41.13
2019-04-21T20:51:06.408Z,41.89
2019-04-21T20:54:17.602Z,41.79
2019-04-21T20:57:18.986Z,42.24
2019-04-21T21:00:33.998Z,42.24
2019-04-21T21:03:34.904Z,42.23
2019-04-21T21:06:38.483Z,43.13
2019-04-21T21:09:52.258Z,43.38
2019-04-21T21:13:00.597Z,43.22
2019-04-21T21:16:10.230Z,43.91
2019-04-21T21:22:06.023Z,43.95
2019-04-21T21:25:25.587Z,43.89
2019-04-21T21:28:22.566Z,42.89
2019-04-21T21:31:31.304Z,45.32
2019-04-21T21:34:42.559Z,45.00
2019-04-21T21:37:49.530Z,44.43
2019-04-21T21:40:45.567Z,44.82
2019-04-21T21:43:39.438Z,45.02
2019-04-21T21:46:58.894Z,45.96
2019-04-21T21:50:01.196Z,45.25
2019-04-21T21:53:04.270Z,45.68
2019-04-21T21:56:04.570Z,45.18
2019-04-21T21:59:15.964Z,45.31
2019-04-21T22:02:26.239Z,45.43
2019-04-21T22:05:26.031Z,45.16
2019-04-21T22:08:30.443Z,46.17
2019-04-21T22:11:35.879Z,46.09
2019-04-21T22:14:44.910Z,46.98
2019-04-21T22:18:07.332Z,47.07
2019-04-21T22:21:09.110Z,46.87
2019-04-21T22:24:08.720Z,47.45
2019-04-21T22:27:07.360Z,47.42
2019-04-21T22:30:14.659Z,47.84
2019-04-21T22:33:21.286Z,47.47
2019-04-21T22:36:35.518Z,48.52
2019-04-21T22:39:48.603Z,48.25
2019-04-21T22:42:50.104Z,48.75
2019-04-21T22:45:45.373Z,48.75
2019-04-21T22:48:53.123Z,48.76
2019-04-21T22:52:00.794Z,48.98
2019-04-21T22:55:08.254Z,48.93
2019-04-21T22:58:09.625Z,49.86
2019-04-21T23:01:20.111Z,49.53
2019-04-21T23:04:21.023Z,49.76
2019-04-21T23:07:26.623Z,50.46
2019-04-21T23:10:32.401Z,50.46
2019-04-21T23:13:40.042Z,50.23
2019-04-21T23:16:45.609Z,50.58
2019-04-21T23:20:09.528Z,50.20
2019-04-21T23:23:17.616Z,49.76
2019-04-21T23:26:23.757Z,49.69
2019-04-21T23:29:39.331Z,50.29
2019-04-21T23:32:29.424Z,51.09
2019-04-21T23:35:27.779Z,51.59
2019-04-21T23:38:34.939Z,50.67
2019-04-21T23:41:40.467Z,50.68
2019-04-21T23:44:47.032Z,50.16
2019-04-21T23:47:57.927Z,51.02
2019-04-21T23:51:01.866Z,51.63
2019-04-21T23:53:59.535Z,51.66
2019-04-21T23:57:14.206Z,51.37
